createdAt,value
2023-02-24T00:02:06.144Z,100520.19
2023-02-24T00:04:41.465Z,100524.69
2023-02-24T00:07:10.973Z,100503.97
2023-02-24T00:09:39.191Z,100516.88
2023-02-24T00:12:09.037Z,100508.66
2023-02-24T00:14:38.001Z,100499.59
2023-02-24T00:17:08.135Z,100499.59
2023-02-24T00:19:38.511Z,100495.09
2023-02-24T00:22:07.223Z,100501.09
2023-02-24T00:24:34.682Z,100509.72
2023-02-24T00:27:07.580Z,100505.63
2023-02-24T00:29:37.564Z,100498.38
2023-02-24T00:32:07.276Z,100500.06
2023-02-24T00:34:37.595Z,100496.19
2023-02-24T00:37:09.036Z,100485.88
2023-02-24T00:39:41.400Z,100487.72
2023-02-24T00:42:11.598Z,100486.91
2023-02-24T00:44:41.204Z,100483.41
2023-02-24T00:47:10.479Z,100478.66
2023-02-24T00:49:42.631Z,100488.75
2023-02-24T00:52:13.848Z,100487.88
2023-02-24T00:54:45.931Z,100496.53
2023-02-24T00:57:12.796Z,100500.00
2023-02-24T00:59:39.662Z,100496.25
2023-02-24T01:02:07.696Z,100505.94
2023-02-24T01:04:35.342Z,100516.84
2023-02-24T01:07:02.169Z,100544.13
2023-02-24T01:09:31.356Z,100533.28
2023-02-24T01:12:17.351Z,100525.88
2023-02-24T01:14:49.617Z,100536.91
2023-02-24T01:17:18.423Z,100552.97
2023-02-24T01:19:47.351Z,100553.28
2023-02-24T01:22:16.104Z,100547.78
2023-02-24T01:24:45.078Z,100543.31
2023-02-24T01:27:14.499Z,100546.19
2023-02-24T01:29:41.519Z,100559.59
2023-02-24T01:32:16.841Z,100553.13
2023-02-24T01:34:44.171Z,100567.94
2023-02-24T01:37:16.287Z,100575.50
2023-02-24T01:39:45.258Z,100596.00
2023-02-24T01:42:16.956Z,100587.34
2023-02-24T01:44:43.779Z,100578.78
2023-02-24T01:47:11.509Z,100564.06
2023-02-24T01:49:42.669Z,100582.63
2023-02-24T01:52:20.018Z,100584.34
2023-02-24T01:54:55.170Z,100602.00
2023-02-24T01:57:26.004Z,100604.91
2023-02-24T02:00:02.122Z,100591.31
2023-02-24T02:02:29.604Z,100590.22
2023-02-24T02:05:04.913Z,100578.28
2023-02-24T02:07:32.268Z,100569.97
2023-02-24T02:10:03.973Z,100576.59
2023-02-24T02:12:37.064Z,100585.84
2023-02-24T02:15:05.956Z,100572.78
2023-02-24T02:17:51.400Z,100575.44
2023-02-24T02:20:42.363Z,100557.09
2023-02-24T02:23:15.228Z,100566.00
2023-02-24T02:25:45.185Z,100571.06
2023-02-24T02:28:36.676Z,100579.81
2023-02-24T02:31:16.930Z,100576.97
2023-02-24T02:34:07.696Z,100567.38
2023-02-24T02:37:08.234Z,100563.50
2023-02-24T02:39:48.158Z,100545.94
2023-02-24T02:42:30.183Z,100545.25
2023-02-24T02:45:08.846Z,100544.94
2023-02-24T02:47:47.872Z,100534.78
2023-02-24T02:50:46.932Z,100535.66
2023-02-24T02:53:27.781Z,100520.75
2023-02-24T02:56:09.634Z,100536.03
2023-02-24T02:58:42.250Z,100536.94
2023-02-24T03:01:11.186Z,100550.03
2023-02-24T03:03:45.736Z,100566.16
2023-02-24T03:06:27.624Z,100567.53
2023-02-24T03:09:12.442Z,100579.94
2023-02-24T03:11:41.418Z,100565.13
2023-02-24T03:14:12.419Z,100552.69
2023-02-24T03:16:43.696Z,100549.19
2023-02-24T03:19:14.509Z,100546.94
2023-02-24T03:21:48.164Z,100552.06
2023-02-24T03:24:15.833Z,100542.78
2023-02-24T03:26:52.852Z,100552.28
2023-02-24T03:30:07.479Z,100554.44
2023-02-24T03:32:58.597Z,100562.97
2023-02-24T03:35:31.161Z,100565.75
2023-02-24T03:38:00.598Z,100566.25
2023-02-24T03:40:35.987Z,100555.88
2023-02-24T03:43:27.988Z,100546.50
2023-02-24T03:46:00.479Z,100546.09
2023-02-24T03:48:28.797Z,100559.84
2023-02-24T03:50:59.390Z,100550.06
2023-02-24T03:54:01.659Z,100543.72
2023-02-24T03:56:45.968Z,100544.97
2023-02-24T03:59:52.901Z,100530.63
2023-02-24T04:02:28.611Z,100524.88
2023-02-24T04:05:12.112Z,100519.22
2023-02-24T04:08:00.488Z,100525.88
2023-02-24T04:10:39.186Z,100537.31
2023-02-24T04:13:22.664Z,100539.22
2023-02-24T04:15:59.463Z,100536.94
2023-02-24T04:18:31.004Z,100544.44
2023-02-24T04:21:01.909Z,100538.00
2023-02-24T04:23:38.728Z,100535.44
2023-02-24T04:26:08.965Z,100522.56
2023-02-24T04:28:36.169Z,100533.41
2023-02-24T04:31:10.172Z,100526.44
2023-02-24T04:33:38.664Z,100526.41
2023-02-24T04:36:06.110Z,100524.28
2023-02-24T04:38:37.122Z,100531.06
2023-02-24T04:41:05.051Z,100526.72
2023-02-24T04:43:31.859Z,100522.41
2023-02-24T04:45:58.684Z,100534.00
2023-02-24T04:48:25.514Z,100535.13
2023-02-24T04:50:55.229Z,100537.09
2023-02-24T04:53:27.200Z,100531.41
2023-02-24T04:55:56.235Z,100535.31
2023-02-24T04:58:28.980Z,100530.91
2023-02-24T05:00:56.475Z,100531.41
2023-02-24T05:03:28.231Z,100533.63
2023-02-24T05:05:58.276Z,100531.16
2023-02-24T05:08:27.294Z,100536.44
2023-02-24T05:10:54.751Z,100538.38
2023-02-24T05:13:27.234Z,100535.28
2023-02-24T05:15:59.437Z,100542.94
2023-02-24T05:18:29.604Z,100535.81
2023-02-24T05:21:15.948Z,100536.22
2023-02-24T05:23:45.421Z,100534.09
2023-02-24T05:26:17.665Z,100541.97
2023-02-24T05:28:52.188Z,100535.81
2023-02-24T05:31:26.547Z,100541.59
2023-02-24T05:33:58.954Z,100546.75
2023-02-24T05:36:29.241Z,100554.78
2023-02-24T05:39:04.566Z,100548.81
2023-02-24T05:41:36.047Z,100545.53
2023-02-24T05:44:08.675Z,100545.78
2023-02-24T05:46:38.631Z,100537.50
2023-02-24T05:49:11.955Z,100536.81
2023-02-24T05:51:39.363Z,100543.97
2023-02-24T05:54:08.791Z,100542.13
2023-02-24T05:56:38.725Z,100544.78
2023-02-24T05:59:11.294Z,100548.53
2023-02-24T06:01:45.848Z,100543.34
2023-02-24T06:04:20.941Z,100540.84
2023-02-24T06:06:52.640Z,100549.00
2023-02-24T06:09:23.288Z,100541.06
2023-02-24T06:11:50.444Z,100546.84
2023-02-24T06:14:17.365Z,100542.25
2023-02-24T06:16:44.196Z,100547.72
2023-02-24T06:19:12.470Z,100540.72
2023-02-24T06:21:41.984Z,100557.81
2023-02-24T06:24:15.329Z,100551.84
2023-02-24T06:26:45.935Z,100551.47
2023-02-24T06:29:17.667Z,100559.09
2023-02-24T06:31:45.234Z,100558.25
2023-02-24T06:34:14.020Z,100556.31
2023-02-24T06:36:40.888Z,100559.44
2023-02-24T06:39:08.207Z,100546.91
2023-02-24T06:41:37.898Z,100558.53
2023-02-24T06:44:04.750Z,100549.09
2023-02-24T06:46:32.015Z,100559.19
2023-02-24T06:48:58.856Z,100549.75
2023-02-24T06:51:30.168Z,100545.28
2023-02-24T06:53:59.543Z,100550.13
2023-02-24T06:56:27.768Z,100543.47
2023-02-24T06:58:56.945Z,100559.06
2023-02-24T07:01:26.714Z,100563.69
2023-02-24T07:04:02.365Z,100559.53
2023-02-24T07:06:31.866Z,100567.00
2023-02-24T07:08:59.232Z,100572.81
2023-02-24T07:11:28.012Z,100577.41
2023-02-24T07:13:57.554Z,100570.06
2023-02-24T07:16:25.814Z,100585.72
2023-02-24T07:18:57.116Z,100573.63
2023-02-24T07:21:30.149Z,100577.75
2023-02-24T07:23:59.089Z,100583.06
2023-02-24T07:26:27.829Z,100586.31
2023-02-24T07:28:56.720Z,100592.75
2023-02-24T07:31:24.875Z,100596.72
2023-02-24T07:34:02.042Z,100593.88
2023-02-24T07:36:38.852Z,100609.09
2023-02-24T07:39:09.794Z,100604.22
2023-02-24T07:41:37.119Z,100603.16
2023-02-24T07:44:05.892Z,100606.19
2023-02-24T07:46:33.530Z,100605.28
2023-02-24T07:49:01.597Z,100609.03
2023-02-24T07:51:29.516Z,100616.28
2023-02-24T07:53:59.520Z,100618.72
2023-02-24T07:56:28.718Z,100625.22
2023-02-24T07:58:59.600Z,100615.50
2023-02-24T08:01:31.032Z,100616.88
2023-02-24T08:04:01.484Z,100618.91
2023-02-24T08:06:38.119Z,100618.59
2023-02-24T08:09:21.055Z,100628.53
2023-02-24T08:11:53.777Z,100626.19
2023-02-24T08:14:25.611Z,100635.44
2023-02-24T08:17:05.449Z,100631.19
2023-02-24T08:19:39.759Z,100639.84
2023-02-24T08:22:21.153Z,100636.47
2023-02-24T08:24:53.599Z,100643.28
2023-02-24T08:27:25.862Z,100642.81
2023-02-24T08:30:03.695Z,100644.09
2023-02-24T08:32:44.009Z,100648.47
2023-02-24T08:35:16.346Z,100650.13
2023-02-24T08:37:47.218Z,100651.22
2023-02-24T08:40:32.176Z,100651.06
2023-02-24T08:43:16.040Z,100666.81
2023-02-24T08:45:51.930Z,100658.69
2023-02-24T08:48:42.409Z,100658.69
2023-02-24T08:51:22.952Z,100655.53
2023-02-24T08:53:56.124Z,100657.13
2023-02-24T08:56:34.413Z,100657.56
2023-02-24T08:59:07.276Z,100663.53
2023-02-24T09:01:39.790Z,100670.50
2023-02-24T09:04:08.148Z,100660.44
2023-02-24T09:06:40.094Z,100663.81
2023-02-24T09:09:21.126Z,100660.97
2023-02-24T09:11:59.878Z,100665.19
2023-02-24T09:14:36.576Z,100663.94
2023-02-24T09:17:11.130Z,100667.97
2023-02-24T09:19:47.920Z,100666.78
2023-02-24T09:22:31.300Z,100656.66
2023-02-24T09:25:40.722Z,100655.31
2023-02-24T09:28:18.708Z,100652.69
2023-02-24T09:30:54.553Z,100657.97
2023-02-24T09:33:29.103Z,100657.69
2023-02-24T09:36:09.738Z,100664.19
2023-02-24T09:38:57.788Z,100666.78
2023-02-24T09:41:54.688Z,100668.03
2023-02-24T09:44:27.053Z,100663.94
2023-02-24T09:47:09.202Z,100668.75
2023-02-24T09:49:46.939Z,100668.03
2023-02-24T09:52:17.612Z,100666.81
2023-02-24T09:55:18.779Z,100671.28
2023-02-24T09:58:16.194Z,100669.91
2023-02-24T10:01:23.068Z,100672.06
2023-02-24T10:04:19.566Z,100677.31
2023-02-24T10:06:57.734Z,100686.03
2023-02-24T10:09:34.537Z,100681.13
2023-02-24T10:12:20.620Z,100672.19
2023-02-24T10:15:24.657Z,100687.16
2023-02-24T10:17:58.177Z,100691.81
2023-02-24T10:20:40.369Z,100691.69
2023-02-24T10:23:13.044Z,100683.69
2023-02-24T10:25:54.086Z,100688.72
2023-02-24T10:28:57.240Z,100695.59
2023-02-24T10:31:46.105Z,100694.13
2023-02-24T10:34:21.524Z,100691.44
2023-02-24T10:36:50.484Z,100696.34
2023-02-24T10:39:26.063Z,100692.81
2023-02-24T10:42:15.737Z,100688.28
2023-02-24T10:45:01.933Z,100697.19
2023-02-24T10:47:31.414Z,100693.13
2023-02-24T10:50:01.852Z,100685.56
2023-02-24T10:53:04.541Z,100692.16
2023-02-24T10:55:56.033Z,100688.53
2023-02-24T10:58:28.755Z,100672.94
2023-02-24T11:01:12.296Z,100678.56
2023-02-24T11:03:46.444Z,100674.50
2023-02-24T11:06:51.503Z,100669.16
2023-02-24T11:09:30.203Z,100676.16
2023-02-24T11:12:18.598Z,100669.09
2023-02-24T11:15:43.366Z,100674.38
2023-02-24T11:18:19.523Z,100675.81
2023-02-24T11:20:54.222Z,100671.81
2023-02-24T11:23:29.539Z,100670.56
2023-02-24T11:26:04.666Z,100670.41
2023-02-24T11:28:50.425Z,100661.00
2023-02-24T11:31:37.545Z,100657.81
2023-02-24T11:34:18.708Z,100652.41
2023-02-24T11:37:14.917Z,100655.16
2023-02-24T11:40:07.456Z,100664.22
2023-02-24T11:42:43.749Z,100654.25
2023-02-24T11:45:13.749Z,100647.19
2023-02-24T11:48:16.049Z,100636.47
2023-02-24T11:51:11.521Z,100631.84
2023-02-24T11:54:04.264Z,100627.66
2023-02-24T11:56:44.118Z,100619.53
2023-02-24T11:59:13.587Z,100610.66
2023-02-24T12:01:55.464Z,100593.94
2023-02-24T12:04:30.445Z,100589.16
2023-02-24T12:07:14.097Z,100580.00
2023-02-24T12:09:50.427Z,100563.28
2023-02-24T12:12:24.414Z,100567.00
2023-02-24T12:14:58.124Z,100583.88
2023-02-24T12:17:44.386Z,100566.25
2023-02-24T12:20:23.524Z,100574.13
2023-02-24T12:22:56.525Z,100568.47
2023-02-24T12:25:29.315Z,100573.25
2023-02-24T12:28:10.917Z,100563.19
2023-02-24T12:30:51.154Z,100560.47
2023-02-24T12:33:27.982Z,100554.03
2023-02-24T12:36:09.917Z,100556.09
2023-02-24T12:38:55.703Z,100556.81
2023-02-24T12:41:40.547Z,100545.84
2023-02-24T12:44:13.273Z,100537.25
2023-02-24T12:46:40.536Z,100529.19
2023-02-24T12:49:27.472Z,100511.91
2023-02-24T12:52:14.908Z,100511.16
2023-02-24T12:54:51.598Z,100509.72
2023-02-24T12:57:31.999Z,100508.06
2023-02-24T13:00:06.390Z,100512.59
2023-02-24T13:02:51.284Z,100509.50
2023-02-24T13:05:45.573Z,100502.69
2023-02-24T13:08:45.219Z,100493.63
2023-02-24T13:11:43.076Z,100487.63
2023-02-24T13:14:21.383Z,100480.84
2023-02-24T13:16:48.334Z,100472.44
2023-02-24T13:19:28.299Z,100471.41
2023-02-24T13:22:03.586Z,100470.56
2023-02-24T13:24:30.491Z,100466.06
2023-02-24T13:27:12.527Z,100460.41
2023-02-24T13:29:48.223Z,100457.03
2023-02-24T13:32:34.137Z,100455.16
2023-02-24T13:35:25.418Z,100445.09
2023-02-24T13:37:53.652Z,100435.69
2023-02-24T13:40:23.095Z,100422.88
2023-02-24T13:43:01.662Z,100424.38
2023-02-24T13:45:33.909Z,100419.25
2023-02-24T13:48:21.808Z,100415.53
2023-02-24T13:51:08.201Z,100412.69
2023-02-24T13:53:40.928Z,100413.09
2023-02-24T13:56:13.753Z,100407.31
2023-02-24T13:59:05.237Z,100406.44
2023-02-24T14:01:44.886Z,100401.31
2023-02-24T14:04:25.020Z,100396.94
2023-02-24T14:06:55.386Z,100401.09
2023-02-24T14:09:26.999Z,100401.44
2023-02-24T14:12:25.357Z,100386.66
2023-02-24T14:14:53.557Z,100387.88
2023-02-24T14:17:30.782Z,100392.16
2023-02-24T14:20:09.570Z,100390.16
2023-02-24T14:22:44.713Z,100390.06
2023-02-24T14:25:12.509Z,100388.00
2023-02-24T14:27:40.010Z,100384.91
2023-02-24T14:30:08.261Z,100385.47
2023-02-24T14:32:35.450Z,100374.66
2023-02-24T14:35:02.257Z,100378.97
2023-02-24T14:37:31.234Z,100385.53
2023-02-24T14:40:05.961Z,100398.31
2023-02-24T14:42:32.745Z,100397.75
2023-02-24T14:44:59.731Z,100402.88
2023-02-24T14:47:28.904Z,100387.66
2023-02-24T14:50:02.333Z,100399.16
2023-02-24T14:52:53.907Z,100403.94
2023-02-24T14:55:32.839Z,100399.66
2023-02-24T14:58:18.958Z,100387.50
2023-02-24T15:00:53.625Z,100388.94
2023-02-24T15:03:29.479Z,100382.34
2023-02-24T15:05:59.990Z,100376.56
2023-02-24T15:08:29.394Z,100373.13
2023-02-24T15:10:56.409Z,100360.59
2023-02-24T15:13:37.771Z,100360.59
2023-02-24T15:16:27.058Z,100355.72
2023-02-24T15:19:01.137Z,100342.56
2023-02-24T15:21:40.363Z,100344.81
2023-02-24T15:24:32.428Z,100343.38
2023-02-24T15:27:21.113Z,100336.59
2023-02-24T15:30:02.269Z,100338.44
2023-02-24T15:32:31.858Z,100333.31
2023-02-24T15:34:59.407Z,100335.59
2023-02-24T15:37:29.975Z,100333.53
2023-02-24T15:40:05.499Z,100334.56
2023-02-24T15:42:34.298Z,100336.00
2023-02-24T15:45:22.065Z,100332.91
2023-02-24T15:47:55.801Z,100340.53
2023-02-24T15:50:23.315Z,100347.91
2023-02-24T15:52:50.258Z,100337.47
2023-02-24T15:55:19.566Z,100330.88
2023-02-24T15:57:47.918Z,100328.59
2023-02-24T16:00:21.465Z,100323.66
2023-02-24T16:02:48.484Z,100317.47
2023-02-24T16:05:15.856Z,100313.97
2023-02-24T16:07:47.798Z,100310.44
2023-02-24T16:10:19.465Z,100311.09
2023-02-24T16:12:53.772Z,100313.56
2023-02-24T16:15:25.607Z,100319.09
2023-02-24T16:17:53.283Z,100315.97
2023-02-24T16:20:37.328Z,100310.84
2023-02-24T16:23:05.611Z,100311.84
2023-02-24T16:25:38.401Z,100305.91
2023-02-24T16:28:05.195Z,100313.94
2023-02-24T16:30:32.190Z,100312.94
2023-02-24T16:33:01.162Z,100320.13
2023-02-24T16:35:28.446Z,100315.03
2023-02-24T16:37:55.213Z,100318.97
2023-02-24T16:40:30.759Z,100313.19
2023-02-24T16:42:57.898Z,100312.63
2023-02-24T16:45:29.648Z,100313.84
2023-02-24T16:48:02.223Z,100313.63
2023-02-24T16:50:33.962Z,100302.75
2023-02-24T16:53:01.001Z,100303.16
2023-02-24T16:55:28.042Z,100309.34
2023-02-24T16:57:54.752Z,100306.84
2023-02-24T17:00:24.253Z,100298.84
2023-02-24T17:02:52.869Z,100298.84
2023-02-24T17:05:24.726Z,100305.84
2023-02-24T17:07:52.616Z,100297.22
2023-02-24T17:10:21.048Z,100303.00
2023-02-24T17:12:48.720Z,100301.53
2023-02-24T17:15:20.609Z,100297.22
2023-02-24T17:17:47.340Z,100306.47
2023-02-24T17:20:16.625Z,100308.94
2023-02-24T17:22:44.779Z,100311.59
2023-02-24T17:25:20.484Z,100315.47
2023-02-24T17:27:47.254Z,100304.00
2023-02-24T17:30:18.106Z,100306.84
2023-02-24T17:32:44.977Z,100313.63
2023-02-24T17:35:11.782Z,100320.41
2023-02-24T17:37:38.612Z,100317.34
2023-02-24T17:40:06.808Z,100322.25
2023-02-24T17:42:33.809Z,100316.50
2023-02-24T17:45:00.536Z,100322.69
2023-02-24T17:47:27.794Z,100323.69
2023-02-24T17:49:54.592Z,100334.34
2023-02-24T17:52:21.547Z,100336.63
2023-02-24T17:54:48.255Z,100342.34
2023-02-24T17:57:15.104Z,100341.31
2023-02-24T17:59:48.173Z,100335.16
2023-02-24T18:02:17.866Z,100336.19
2023-02-24T18:04:44.689Z,100339.03
2023-02-24T18:07:12.770Z,100339.25
2023-02-24T18:09:39.623Z,100349.69
2023-02-24T18:12:06.656Z,100349.28
2023-02-24T18:14:33.477Z,100339.22
2023-02-24T18:17:00.290Z,100340.66
2023-02-24T18:19:27.100Z,100340.84
2023-02-24T18:21:53.810Z,100346.56
2023-02-24T18:24:22.800Z,100353.09
2023-02-24T18:26:50.105Z,100349.59
2023-02-24T18:29:16.918Z,100346.28
2023-02-24T18:31:43.888Z,100356.13
2023-02-24T18:34:10.811Z,100353.22
2023-02-24T18:36:37.599Z,100348.09
2023-02-24T18:39:05.090Z,100350.53
2023-02-24T18:41:31.866Z,100351.63
2023-02-24T18:43:59.296Z,100357.09
2023-02-24T18:46:27.484Z,100363.47
2023-02-24T18:48:55.911Z,100367.97
2023-02-24T18:51:23.720Z,100368.16
2023-02-24T18:53:52.798Z,100370.59
2023-02-24T18:56:25.776Z,100368.25
2023-02-24T18:58:56.043Z,100371.31
2023-02-24T19:01:29.046Z,100374.97
2023-02-24T19:03:56.781Z,100374.72
2023-02-24T19:06:26.868Z,100383.38
2023-02-24T19:09:06.804Z,100392.81
2023-02-24T19:11:34.290Z,100399.47
2023-02-24T19:14:01.098Z,100401.50
2023-02-24T19:16:28.367Z,100403.88
2023-02-24T19:18:57.160Z,100405.41
2023-02-24T19:21:25.408Z,100402.00
2023-02-24T19:23:52.625Z,100404.28
2023-02-24T19:26:25.564Z,100406.97
2023-02-24T19:28:53.720Z,100405.59
2023-02-24T19:31:23.920Z,100407.97
2023-02-24T19:34:03.148Z,100412.09
2023-02-24T19:36:32.869Z,100415.03
2023-02-24T19:38:59.874Z,100411.34
2023-02-24T19:41:27.400Z,100418.09
2023-02-24T19:43:55.454Z,100416.25
2023-02-24T19:46:23.025Z,100428.25
2023-02-24T19:48:50.158Z,100428.34
2023-02-24T19:51:20.665Z,100432.19
2023-02-24T19:53:47.649Z,100442.00
2023-02-24T19:56:14.916Z,100445.94
2023-02-24T19:58:41.698Z,100441.91
2023-02-24T20:01:13.977Z,100448.53
2023-02-24T20:03:42.991Z,100453.25
2023-02-24T20:06:21.719Z,100458.66
2023-02-24T20:08:48.766Z,100456.25
2023-02-24T20:11:15.539Z,100442.00
2023-02-24T20:13:42.257Z,100447.75
2023-02-24T20:16:12.446Z,100458.69
2023-02-24T20:18:40.452Z,100460.34
2023-02-24T20:21:07.795Z,100456.69
2023-02-24T20:23:34.654Z,100465.28
2023-02-24T20:26:01.842Z,100463.25
2023-02-24T20:28:29.603Z,100467.38
2023-02-24T20:30:58.098Z,100459.00
2023-02-24T20:33:26.366Z,100459.44
2023-02-24T20:35:53.105Z,100457.84
2023-02-24T20:38:20.046Z,100456.00
2023-02-24T20:40:56.377Z,100456.19
2023-02-24T20:43:23.217Z,100469.03
2023-02-24T20:45:50.027Z,100470.50
2023-02-24T20:48:16.771Z,100459.41
2023-02-24T20:50:43.536Z,100455.94
2023-02-24T20:53:10.242Z,100467.25
2023-02-24T20:55:37.087Z,100457.56
2023-02-24T20:58:03.815Z,100465.00
2023-02-24T21:00:30.757Z,100460.16
2023-02-24T21:02:58.004Z,100468.47
2023-02-24T21:05:28.294Z,100458.53
2023-02-24T21:07:55.041Z,100460.88
2023-02-24T21:10:25.924Z,100442.28
2023-02-24T21:12:53.192Z,100440.31
2023-02-24T21:15:20.157Z,100440.69
2023-02-24T21:17:46.877Z,100437.69
2023-02-24T21:20:14.227Z,100431.63
2023-02-24T21:22:41.555Z,100439.28
2023-02-24T21:25:13.060Z,100436.97
2023-02-24T21:27:39.888Z,100434.44
2023-02-24T21:30:09.398Z,100429.13
2023-02-24T21:32:36.444Z,100425.25
2023-02-24T21:35:03.954Z,100424.50
2023-02-24T21:37:30.844Z,100421.91
2023-02-24T21:39:57.633Z,100424.50
2023-02-24T21:42:24.452Z,100421.66
2023-02-24T21:44:51.260Z,100423.47
2023-02-24T21:47:18.899Z,100408.69
2023-02-24T21:49:46.326Z,100416.00
2023-02-24T21:52:13.453Z,100411.75
2023-02-24T21:54:42.314Z,100411.03
2023-02-24T21:57:09.145Z,100410.22
2023-02-24T21:59:35.903Z,100412.81
2023-02-24T22:02:02.745Z,100410.69
2023-02-24T22:04:29.567Z,100416.66
2023-02-24T22:06:56.320Z,100406.34
2023-02-24T22:09:23.059Z,100412.63
2023-02-24T22:11:50.126Z,100413.09
2023-02-24T22:14:17.529Z,100417.94
2023-02-24T22:16:44.592Z,100409.84
2023-02-24T22:19:11.999Z,100412.84
2023-02-24T22:21:42.103Z,100411.75
2023-02-24T22:24:12.663Z,100408.16
2023-02-24T22:26:40.198Z,100414.25
2023-02-24T22:29:07.276Z,100413.09
2023-02-24T22:31:36.523Z,100416.94
2023-02-24T22:34:04.447Z,100415.41
2023-02-24T22:36:36.685Z,100414.25
2023-02-24T22:39:04.521Z,100415.75
2023-02-24T22:41:33.916Z,100412.09
2023-02-24T22:44:02.673Z,100410.28
2023-02-24T22:46:32.751Z,100413.31
2023-02-24T22:48:59.688Z,100416.53
2023-02-24T22:51:27.604Z,100415.28
2023-02-24T22:53:55.164Z,100408.94
2023-02-24T22:56:27.775Z,100411.28
2023-02-24T22:58:55.227Z,100409.38
2023-02-24T23:01:31.324Z,100408.41
2023-02-24T23:04:02.763Z,100405.03
2023-02-24T23:06:30.866Z,100402.25
2023-02-24T23:09:00.168Z,100400.63
2023-02-24T23:11:45.690Z,100405.56
2023-02-24T23:14:14.478Z,100403.63
2023-02-24T23:16:44.481Z,100404.63
2023-02-24T23:19:16.076Z,100399.50
2023-02-24T23:21:49.753Z,100394.88
2023-02-24T23:24:17.776Z,100400.31
2023-02-24T23:26:45.922Z,100393.69
2023-02-24T23:29:14.941Z,100391.31
2023-02-24T23:31:42.258Z,100395.22
2023-02-24T23:34:10.380Z,100392.13
2023-02-24T23:36:39.356Z,100391.50
2023-02-24T23:39:07.902Z,100385.88
2023-02-24T23:41:35.998Z,100386.53
2023-02-24T23:44:05.590Z,100385.00
2023-02-24T23:46:33.514Z,100381.88
2023-02-24T23:49:00.452Z,100383.72
2023-02-24T23:51:33.353Z,100380.53
2023-02-24T23:54:05.652Z,100374.50
2023-02-24T23:56:32.501Z,100389.94
2023-02-24T23:58:59.838Z,100370.06
